Time;durP1;ratioP1;P1;durP2;ratioP2;P2;SDS_P1;SDS_P2;PMS_P1;PMS_P2;Temp;Humidity;BMP_temperature;BMP_pressure;BME280_temperature;BME280_humidity;BME280_pressure;Samples;Min_cycle;Max_cycle;Signal;HPM_P1;HPM_P2
2022/03/15 00:00:43;;;;;;;6.32;2.53;;;11.50;60.00;;;;;;5050864;28;20048;-75
2022/03/15 00:03:09;;;;;;;8.10;2.83;;;11.50;60.00;;;;;;5056235;28;20036;-75
2022/03/15 00:06:02;;;;;;;5.40;2.15;;;11.50;60.20;;;;;;5056949;28;20031;-75
2022/03/15 00:08:30;;;;;;;6.80;2.75;;;11.50;60.20;;;;;;5053777;28;20029;-75
2022/03/15 00:10:58;;;;;;;7.10;2.92;;;11.50;60.20;;;;;;5054371;28;20404;-75
2022/03/15 00:13:28;;;;;;;5.13;2.67;;;11.40;60.20;;;;;;5037333;28;20030;-75
2022/03/15 00:15:55;;;;;;;3.47;2.03;;;11.40;60.60;;;;;;5036048;28;20032;-75
2022/03/15 00:18:21;;;;;;;4.13;2.42;;;11.50;60.40;;;;;;5035454;28;20033;-75
2022/03/15 00:20:47;;;;;;;5.72;2.20;;;11.50;60.30;;;;;;5034094;28;20032;-76
2022/03/15 00:23:12;;;;;;;7.63;2.80;;;11.40;60.70;;;;;;5035581;28;20033;-76
2022/03/15 00:25:38;;;;;;;6.35;2.65;;;11.40;60.90;;;;;;5034195;28;20044;-75
2022/03/15 00:28:04;;;;;;;8.48;2.50;;;11.40;60.90;;;;;;5034327;28;20387;-75
2022/03/15 00:30:30;;;;;;;4.78;2.47;;;11.40;60.90;;;;;;5034107;28;20040;-76
2022/03/15 00:32:55;;;;;;;9.55;2.65;;;11.50;61.10;;;;;;5054464;28;20059;-75
2022/03/15 00:35:25;;;;;;;5.55;2.60;;;11.50;61.10;;;;;;5055587;28;20551;-75
2022/03/15 00:37:53;;;;;;;13.70;3.20;;;11.40;61.10;;;;;;5055323;28;20036;-75
2022/03/15 00:40:20;;;;;;;5.20;2.45;;;11.50;61.00;;;;;;5048903;28;20374;-75
2022/03/15 00:42:53;;;;;;;5.53;2.13;;;11.50;61.20;;;;;;5034981;28;20021;-76
2022/03/15 00:45:24;;;;;;;5.97;2.33;;;11.50;61.20;;;;;;5035171;28;20056;-75
2022/03/15 00:47:54;;;;;;;4.00;2.40;;;11.50;61.10;;;;;;5044637;28;20025;-76
2022/03/15 00:50:21;;;;;;;5.75;2.28;;;11.50;61.60;;;;;;5038784;28;20056;-75
2022/03/15 00:52:47;;;;;;;8.75;2.25;;;11.50;61.70;;;;;;5034973;28;20525;-75
2022/03/15 00:55:13;;;;;;;4.00;2.20;;;11.50;61.60;;;;;;5034850;28;20041;-76
2022/03/15 00:57:39;;;;;;;6.15;2.40;;;11.50;61.80;;;;;;5034361;28;20047;-75
2022/03/15 01:00:07;;;;;;;7.68;2.58;;;11.40;61.60;;;;;;5052873;28;20025;-75
2022/03/15 01:02:33;;;;;;;9.77;2.55;;;11.30;62.00;;;;;;5036938;28;20069;-75
2022/03/15 01:04:59;;;;;;;6.68;2.88;;;11.30;62.20;;;;;;5034798;28;20068;-75
2022/03/15 01:07:24;;;;;;;5.18;2.03;;;11.30;62.40;;;;;;5035513;28;20058;-75
2022/03/15 01:09:50;;;;;;;6.85;2.95;;;11.30;62.50;;;;;;5054801;28;20025;-75
2022/03/15 01:12:16;;;;;;;8.05;2.65;;;11.30;62.50;;;;;;5054669;28;20539;-75
2022/03/15 01:14:42;;;;;;;6.53;2.65;;;11.30;62.20;;;;;;5037706;28;20026;-74
2022/03/15 01:17:07;;;;;;;6.75;2.40;;;11.40;62.60;;;;;;5034657;28;20029;-75
2022/03/15 01:19:33;;;;;;;4.82;2.38;;;11.30;62.50;;;;;;5034344;28;20029;-75
2022/03/15 01:21:59;;;;;;;6.80;2.00;;;11.30;62.80;;;;;;5033073;28;20033;-75
2022/03/15 01:24:25;;;;;;;6.43;2.60;;;11.20;62.90;;;;;;5034636;28;20492;-74
2022/03/15 01:26:51;;;;;;;6.88;2.25;;;11.30;62.90;;;;;;5034626;28;20037;-74
2022/03/15 01:29:19;;;;;;;6.82;2.30;;;11.30;63.10;;;;;;5034360;28;20017;-75
2022/03/15 01:31:45;;;;;;;5.60;3.17;;;11.30;62.90;;;;;;5034517;28;20128;-75
2022/03/15 01:34:10;;;;;;;5.45;2.65;;;11.30;62.80;;;;;;5033416;28;20049;-75
2022/03/15 01:36:36;;;;;;;6.45;2.75;;;11.30;63.00;;;;;;5033845;28;20033;-74
2022/03/15 01:39:04;;;;;;;5.07;2.50;;;11.30;63.20;;;;;;5033296;28;20037;-75
2022/03/15 01:41:30;;;;;;;5.40;2.50;;;11.30;63.30;;;;;;5034231;28;20451;-74
2022/03/15 01:43:55;;;;;;;7.63;2.28;;;11.30;63.10;;;;;;5034216;28;20101;-75
2022/03/15 01:46:21;;;;;;;8.35;2.80;;;11.20;63.40;;;;;;5048477;28;20029;-75
2022/03/15 01:48:47;;;;;;;7.78;2.35;;;11.30;63.40;;;;;;5053983;28;20032;-75
2022/03/15 01:51:15;;;;;;;9.43;2.90;;;11.20;63.50;;;;;;5054094;28;20025;-74
2022/03/15 01:53:42;;;;;;;5.20;2.85;;;11.20;63.70;;;;;;5053779;28;20025;-74
2022/03/15 01:56:07;;;;;;;7.90;2.75;;;11.20;63.70;;;;;;5048059;28;20057;-74
2022/03/15 01:58:33;;;;;;;7.35;3.17;;;11.30;63.70;;;;;;5033887;28;20618;-75
2022/03/15 02:00:59;;;;;;;5.88;2.60;;;11.30;63.90;;;;;;5052219;28;20593;-75
2022/03/15 02:03:25;;;;;;;5.38;3.10;;;11.20;64.30;;;;;;5052583;28;20037;-74
2022/03/15 02:05:51;;;;;;;5.45;2.58;;;11.20;64.40;;;;;;5052590;28;20033;-75
2022/03/15 02:08:17;;;;;;;7.60;2.80;;;11.10;64.80;;;;;;5054026;28;20017;-74
2022/03/15 02:10:44;;;;;;;6.60;2.78;;;11.20;64.90;;;;;;5053428;28;20052;-75
2022/03/15 02:13:10;;;;;;;5.10;2.40;;;11.20;64.90;;;;;;5056153;28;20032;-75
2022/03/15 02:15:37;;;;;;;4.65;2.65;;;11.10;65.30;;;;;;5038893;28;20091;-74
2022/03/15 02:18:04;;;;;;;5.97;2.45;;;11.20;65.20;;;;;;5046166;28;20040;-75
2022/03/15 02:20:30;;;;;;;5.10;2.65;;;11.20;65.20;;;;;;5056672;28;20029;-74
2022/03/15 02:22:57;;;;;;;7.13;2.97;;;11.20;65.30;;;;;;5036644;28;20029;-75
2022/03/15 02:25:24;;;;;;;5.22;2.83;;;11.10;65.60;;;;;;5048521;28;20025;-74
2022/03/15 02:27:51;;;;;;;7.35;2.97;;;11.10;65.80;;;;;;5057728;28;20021;-75
2022/03/15 02:30:17;;;;;;;5.25;2.75;;;11.00;66.30;;;;;;5046734;28;20040;-75
2022/03/15 02:32:44;;;;;;;6.78;2.47;;;11.00;66.20;;;;;;5036068;28;20104;-74
2022/03/15 02:35:10;;;;;;;5.15;2.90;;;11.00;66.60;;;;;;5037794;28;20135;-75
2022/03/15 02:37:36;;;;;;;7.05;3.17;;;11.00;66.80;;;;;;5037547;28;20108;-74
2022/03/15 02:40:03;;;;;;;7.18;3.60;;;11.00;66.90;;;;;;5037628;28;20038;-74
2022/03/15 02:42:29;;;;;;;6.57;3.05;;;11.00;67.00;;;;;;5036426;28;20104;-75
2022/03/15 02:44:55;;;;;;;4.30;2.67;;;11.10;66.90;;;;;;5037769;28;20067;-75
2022/03/15 02:47:20;;;;;;;5.72;3.13;;;11.10;67.10;;;;;;5041680;28;20032;-75
2022/03/15 02:49:46;;;;;;;4.63;2.88;;;11.10;67.30;;;;;;5054932;28;20388;-75
2022/03/15 02:52:12;;;;;;;8.23;3.25;;;11.10;67.50;;;;;;5037472;28;20547;-74
2022/03/15 02:54:40;;;;;;;8.15;3.30;;;11.00;67.70;;;;;;5036164;28;20032;-74
2022/03/15 02:57:09;;;;;;;8.98;3.40;;;11.00;68.10;;;;;;5044354;28;20060;-74
2022/03/15 02:59:36;;;;;;;5.72;2.95;;;11.00;68.20;;;;;;5055744;28;20025;-75
2022/03/15 03:02:03;;;;;;;8.57;3.22;;;11.00;68.40;;;;;;5055921;28;20035;-75
2022/03/15 03:04:28;;;;;;;5.15;2.90;;;11.00;68.80;;;;;;5035970;28;20032;-75
2022/03/15 03:06:54;;;;;;;6.50;3.10;;;11.00;68.70;;;;;;5036869;28;20033;-75
2022/03/15 03:09:20;;;;;;;7.15;3.30;;;11.00;68.90;;;;;;5036549;28;20036;-75
2022/03/15 03:11:46;;;;;;;6.85;3.55;;;11.00;69.20;;;;;;5036963;28;20026;-75
2022/03/15 03:14:21;;;;;;;6.72;3.55;;;11.10;69.30;;;;;;5037148;28;20029;-75
2022/03/15 03:16:46;;;;;;;6.93;3.47;;;11.00;69.60;;;;;;5036934;28;20493;-75
2022/03/15 03:19:12;;;;;;;7.10;3.45;;;11.00;69.80;;;;;;5035897;28;20128;-75
2022/03/15 03:21:38;;;;;;;7.18;2.95;;;11.00;70.10;;;;;;5035374;28;20021;-74
2022/03/15 03:24:06;;;;;;;5.55;3.33;;;11.10;70.30;;;;;;5036086;28;20061;-75
2022/03/15 03:26:36;;;;;;;3.67;2.55;;;11.10;70.40;;;;;;5035498;28;20584;-75
2022/03/15 03:29:02;;;;;;;5.22;3.40;;;11.10;70.40;;;;;;5036424;28;20503;-75
2022/03/15 03:31:30;;;;;;;8.23;4.13;;;11.10;70.60;;;;;;5034976;28;20021;-75
2022/03/15 03:33:56;;;;;;;4.28;3.00;;;11.00;71.10;;;;;;5036831;28;20037;-74
2022/03/15 03:36:24;;;;;;;4.93;3.08;;;11.10;71.10;;;;;;5036583;28;20374;-75
2022/03/15 03:38:50;;;;;;;5.38;3.10;;;11.10;71.40;;;;;;5036766;28;20030;-75
2022/03/15 03:41:16;;;;;;;6.45;3.10;;;11.10;71.80;;;;;;5034834;28;20029;-75
2022/03/15 03:43:41;;;;;;;8.00;3.20;;;11.10;71.80;;;;;;5054957;28;20527;-74
2022/03/15 03:46:07;;;;;;;5.53;3.20;;;11.20;71.90;;;;;;5054844;28;20468;-75
2022/03/15 03:48:33;;;;;;;5.97;3.30;;;11.20;71.80;;;;;;5054718;28;20036;-74
2022/03/15 03:50:59;;;;;;;4.50;3.05;;;11.20;72.00;;;;;;5043067;28;20101;-75
2022/03/15 03:53:25;;;;;;;7.43;3.25;;;11.10;72.70;;;;;;5036439;28;20036;-74
2022/03/15 03:55:51;;;;;;;10.40;3.95;;;11.20;72.50;;;;;;5035851;28;20066;-74
2022/03/15 03:58:16;;;;;;;5.13;3.17;;;11.20;73.00;;;;;;5034973;28;20401;-74
2022/03/15 04:00:42;;;;;;;7.82;3.40;;;11.20;73.50;;;;;;5052046;28;20021;-75
2022/03/15 04:03:09;;;;;;;5.68;3.63;;;11.20;73.90;;;;;;5056094;28;20036;-75
2022/03/15 04:05:39;;;;;;;5.28;3.08;;;11.20;74.20;;;;;;5045224;28;20024;-74
2022/03/15 04:08:06;;;;;;;5.60;3.67;;;11.20;74.40;;;;;;5035530;28;20029;-75
2022/03/15 04:10:32;;;;;;;5.68;3.85;;;11.20;74.80;;;;;;5035949;28;20025;-74
2022/03/15 04:12:59;;;;;;;8.40;4.10;;;11.20;74.70;;;;;;5034455;28;20029;-75
2022/03/15 04:15:25;;;;;;;7.50;3.88;;;11.20;75.20;;;;;;5034773;28;20510;-75
2022/03/15 04:17:51;;;;;;;5.15;3.25;;;11.10;76.10;;;;;;5042219;28;20028;-75
2022/03/15 04:20:17;;;;;;;6.25;4.32;;;11.20;76.20;;;;;;5055741;28;20057;-75
2022/03/15 04:22:44;;;;;;;5.20;3.45;;;11.10;76.90;;;;;;5054251;28;20033;-74
2022/03/15 04:25:10;;;;;;;7.50;4.40;;;11.00;77.70;;;;;;5036538;28;20025;-74
2022/03/15 04:27:36;;;;;;;6.07;3.90;;;11.00;78.00;;;;;;5036164;28;20404;-74
2022/03/15 04:30:04;;;;;;;9.20;4.45;;;11.00;78.10;;;;;;5046215;28;20025;-74
2022/03/15 04:32:29;;;;;;;5.75;4.03;;;11.00;78.30;;;;;;5044187;28;20045;-75
2022/03/15 04:34:55;;;;;;;9.15;4.63;;;11.00;78.70;;;;;;5035318;28;20685;-75
2022/03/15 04:37:23;;;;;;;9.27;4.93;;;11.00;79.10;;;;;;5035429;28;20120;-74
2022/03/15 04:39:50;;;;;;;8.00;4.78;;;10.90;79.70;;;;;;5036503;28;20036;-74
2022/03/15 04:42:16;;;;;;;7.55;4.45;;;10.90;79.80;;;;;;5035055;28;20076;-75
2022/03/15 04:44:42;;;;;;;7.18;3.95;;;10.90;80.00;;;;;;5036695;28;20068;-75
2022/03/15 04:47:08;;;;;;;6.68;4.25;;;10.90;80.20;;;;;;5039403;28;20029;-75
2022/03/15 04:49:34;;;;;;;7.32;4.20;;;10.80;80.40;;;;;;5056083;28;20092;-75
2022/03/15 04:52:02;;;;;;;6.15;4.63;;;10.80;80.80;;;;;;5045314;28;20029;-74
2022/03/15 04:54:29;;;;;;;7.75;4.68;;;10.80;80.80;;;;;;5036380;28;20037;-75
2022/03/15 04:56:54;;;;;;;9.43;4.88;;;10.80;81.00;;;;;;5034443;28;20471;-74
2022/03/15 04:59:21;;;;;;;8.98;5.22;;;10.80;81.10;;;;;;5040894;28;20062;-74
2022/03/15 05:01:46;;;;;;;11.50;5.47;;;10.80;81.10;;;;;;5052402;28;20036;-74
2022/03/15 05:04:12;;;;;;;10.15;5.97;;;10.80;81.20;;;;;;5034521;28;20034;-75
2022/03/15 05:06:39;;;;;;;11.30;5.93;;;10.80;81.40;;;;;;5035886;28;21129;-75
2022/03/15 05:09:05;;;;;;;9.10;5.47;;;10.80;81.40;;;;;;5051541;28;20053;-75
2022/03/15 05:11:31;;;;;;;9.00;5.05;;;10.80;81.90;;;;;;5055650;28;20021;-75
2022/03/15 05:13:57;;;;;;;12.95;6.15;;;10.80;81.80;;;;;;5052060;28;20029;-74
2022/03/15 05:16:23;;;;;;;12.02;6.25;;;10.80;82.40;;;;;;5035809;28;20647;-75
2022/03/15 05:18:52;;;;;;;11.32;5.50;;;10.70;82.50;;;;;;5035523;28;20444;-75
2022/03/15 05:21:23;;;;;;;14.40;6.05;;;10.80;82.90;;;;;;5034330;28;20044;-76
2022/03/15 05:23:49;;;;;;;10.45;5.32;;;10.80;82.60;;;;;;5035445;28;20451;-75
2022/03/15 05:26:17;;;;;;;7.30;5.05;;;10.90;82.40;;;;;;5034021;28;20048;-75
2022/03/15 05:28:44;;;;;;;13.55;5.63;;;10.90;82.60;;;;;;5035784;28;20477;-76
2022/03/15 05:31:10;;;;;;;10.52;5.72;;;10.80;82.70;;;;;;5034122;28;20029;-76
2022/03/15 05:33:36;;;;;;;10.65;5.57;;;10.80;82.90;;;;;;5034059;28;20025;-77
2022/03/15 05:36:03;;;;;;;11.48;6.47;;;10.80;83.50;;;;;;5032409;28;20087;-77
2022/03/15 05:38:29;;;;;;;9.75;6.13;;;10.80;83.60;;;;;;5032024;28;20750;-77
2022/03/15 05:40:55;;;;;;;11.88;6.55;;;10.70;83.70;;;;;;5031905;28;20033;-76
2022/03/15 05:43:22;;;;;;;12.15;6.72;;;10.70;83.80;;;;;;5031817;28;20113;-77
2022/03/15 05:45:48;;;;;;;12.60;6.80;;;10.80;84.00;;;;;;5032478;28;20036;-75
2022/03/15 19:44:30;;;;;;;19.38;10.73;;;12.60;87.30;;;;;;5054475;28;20422;-74
2022/03/15 19:46:57;;;;;;;17.02;11.70;;;12.70;87.20;;;;;;5051380;28;20036;-75
2022/03/15 19:49:23;;;;;;;30.38;17.17;;;12.90;86.70;;;;;;5052252;28;20028;-74
2022/03/15 19:51:49;;;;;;;30.10;18.30;;;13.20;85.90;;;;;;5050994;28;20017;-74
2022/03/15 19:54:15;;;;;;;34.08;18.90;;;13.50;85.10;;;;;;5049914;28;20021;-71
2022/03/15 19:56:42;;;;;;;53.05;30.45;;;13.70;84.20;;;;;;5050323;28;20028;-74
2022/03/15 19:59:14;;;;;;;34.00;21.63;;;13.90;83.50;;;;;;5051691;28;20017;-72
2022/03/15 20:01:46;;;;;;;36.33;23.85;;;14.00;82.90;;;;;;5050860;28;20404;-73
2022/03/15 20:04:17;;;;;;;39.35;23.77;;;14.10;82.50;;;;;;5047525;28;20029;-73
2022/03/15 20:06:46;;;;;;;32.40;19.52;;;14.20;82.00;;;;;;5051441;28;20013;-73
2022/03/15 20:09:12;;;;;;;35.30;22.30;;;14.20;81.70;;;;;;5051700;28;20029;-71
2022/03/15 20:11:41;;;;;;;31.88;20.77;;;14.20;81.60;;;;;;5048044;28;20100;-71
2022/03/15 20:14:10;;;;;;;33.00;20.00;;;14.20;81.40;;;;;;5051535;28;20091;-72
2022/03/15 20:16:38;;;;;;;32.22;20.08;;;14.20;81.40;;;;;;5047558;28;20518;-73
2022/03/15 20:19:04;;;;;;;28.42;17.15;;;14.20;81.20;;;;;;5060909;28;20488;-73
2022/03/15 20:21:30;;;;;;;26.58;16.73;;;14.20;81.20;;;;;;5059988;28;20107;-71
2022/03/15 20:23:56;;;;;;;23.73;16.23;;;14.20;81.30;;;;;;5061990;28;20029;-73
2022/03/15 20:26:24;;;;;;;29.00;16.08;;;14.20;81.10;;;;;;5031742;28;20032;-73
2022/03/15 20:28:50;;;;;;;26.80;14.93;;;14.20;81.20;;;;;;5050043;28;20025;-73
2022/03/15 20:31:22;;;;;;;26.58;16.50;;;14.10;81.60;;;;;;5049034;28;20025;-73
2022/03/15 20:33:51;;;;;;;25.25;13.52;;;14.20;81.20;;;;;;5035397;28;20045;-73
2022/03/15 20:36:18;;;;;;;23.48;14.38;;;14.10;81.30;;;;;;5055871;28;20033;-73
2022/03/15 20:38:47;;;;;;;22.08;14.32;;;14.10;81.60;;;;;;5050384;28;20399;-73
2022/03/15 20:41:20;;;;;;;28.77;18.50;;;14.00;81.70;;;;;;5048418;28;20029;-74
2022/03/15 20:46:31;;;;;;;27.38;17.67;;;14.00;81.70;;;;;;5061850;28;20040;-73
2022/03/15 20:48:57;;;;;;;30.08;15.70;;;14.00;81.80;;;;;;5026702;28;20562;-73
2022/03/15 20:51:25;;;;;;;25.50;15.30;;;14.00;81.80;;;;;;5048701;28;20506;-73
2022/03/15 20:53:54;;;;;;;24.08;13.75;;;14.00;81.70;;;;;;5042744;28;20140;-73
2022/03/15 20:56:22;;;;;;;24.40;14.23;;;14.00;81.80;;;;;;5031985;28;20044;-73
2022/03/15 20:58:49;;;;;;;22.67;15.50;;;14.00;81.60;;;;;;5035795;28;20025;-73
2022/03/15 21:01:15;;;;;;;24.92;15.07;;;14.00;81.40;;;;;;5036800;28;20033;-73
2022/03/15 21:03:42;;;;;;;35.95;16.92;;;14.00;81.20;;;;;;5036696;28;20040;-73
2022/03/15 21:06:08;;;;;;;25.65;14.20;;;13.90;81.50;;;;;;5036509;28;20104;-73
2022/03/15 21:08:39;;;;;;;24.52;14.55;;;13.90;81.20;;;;;;5034026;28;20512;-73
2022/03/15 21:11:06;;;;;;;22.75;14.02;;;13.90;81.30;;;;;;5033394;28;20024;-74
2022/03/15 21:13:35;;;;;;;19.52;12.25;;;13.90;81.40;;;;;;5033328;28;20021;-74
2022/03/15 21:16:03;;;;;;;24.92;12.90;;;13.90;81.50;;;;;;5064873;28;20107;-74
2022/03/15 21:18:28;;;;;;;22.52;12.55;;;13.80;81.70;;;;;;5034848;28;20028;-74
2022/03/15 21:20:57;;;;;;;32.17;15.48;;;13.80;81.90;;;;;;5036763;28;20405;-74
2022/03/15 21:23:28;;;;;;;31.13;17.08;;;13.80;82.00;;;;;;5029892;28;20045;-76
2022/03/15 21:25:56;;;;;;;27.40;15.32;;;13.70;82.10;;;;;;5034041;28;20033;-75
2022/03/15 21:28:24;;;;;;;25.27;12.65;;;13.70;82.10;;;;;;5030460;28;20025;-75
2022/03/15 21:30:51;;;;;;;20.25;11.85;;;13.70;82.10;;;;;;5035652;28;20021;-75
2022/03/15 21:33:21;;;;;;;21.40;11.93;;;13.80;81.80;;;;;;5034294;28;20022;-75
2022/03/15 21:35:50;;;;;;;31.95;17.20;;;13.80;81.40;;;;;;5031864;28;20455;-75
2022/03/15 21:38:22;;;;;;;33.38;17.30;;;13.80;81.40;;;;;;5036467;28;20057;-75
2022/03/15 21:40:49;;;;;;;36.78;20.17;;;13.80;81.30;;;;;;5032965;28;20040;-74
2022/03/15 21:43:14;;;;;;;30.85;19.75;;;13.80;81.10;;;;;;5029572;28;20609;-75
2022/03/15 21:45:41;;;;;;;39.03;23.30;;;13.80;81.10;;;;;;5035412;28;20059;-75
2022/03/15 21:48:08;;;;;;;44.00;26.35;;;13.80;80.90;;;;;;5033874;28;20104;-75
2022/03/15 21:50:45;;;;;;;29.77;15.77;;;13.80;80.80;;;;;;5035236;28;20022;-75
2022/03/15 21:53:18;;;;;;;25.73;14.48;;;13.80;80.90;;;;;;5035179;28;20017;-76
2022/03/15 21:55:48;;;;;;;21.92;12.35;;;13.80;81.30;;;;;;5032946;28;20017;-76
2022/03/15 21:58:14;;;;;;;74.05;29.25;;;13.80;80.90;;;;;;5033186;28;20034;-76
2022/03/15 22:00:39;;;;;;;27.73;14.02;;;13.80;81.20;;;;;;5035084;28;20041;-76
2022/03/15 22:03:05;;;;;;;35.60;16.80;;;13.70;81.30;;;;;;5032259;28;20037;-75
2022/03/15 22:05:33;;;;;;;25.70;13.48;;;13.70;81.70;;;;;;5023109;28;20071;-75
2022/03/15 22:07:58;;;;;;;33.67;17.75;;;13.70;81.70;;;;;;5025409;28;20528;-75
2022/03/15 22:10:26;;;;;;;45.28;23.45;;;13.70;81.40;;;;;;5067883;28;20029;-75
2022/03/15 22:12:52;;;;;;;43.70;20.60;;;13.80;81.20;;;;;;5034259;28;20037;-75
2022/03/15 22:15:18;;;;;;;25.50;13.00;;;13.80;81.00;;;;;;5030002;28;20029;-75
2022/03/15 22:17:48;;;;;;;19.20;9.85;;;13.80;81.10;;;;;;5032134;28;20037;-76
2022/03/15 22:20:19;;;;;;;12.88;8.25;;;13.90;81.10;;;;;;5013882;28;20553;-75
2022/03/15 22:22:46;;;;;;;14.82;8.82;;;13.90;81.10;;;;;;5023769;28;20053;-75
2022/03/15 22:25:12;;;;;;;14.15;8.63;;;13.90;81.20;;;;;;5029485;28;20034;-75
2022/03/15 22:27:38;;;;;;;16.17;9.48;;;13.80;81.60;;;;;;5015455;28;20049;-75
2022/03/15 22:30:05;;;;;;;17.30;8.50;;;13.90;81.30;;;;;;5015902;28;20107;-75
2022/03/15 23:18:07;;;;;;;15.50;8.55;;;13.60;82.20;;;;;;5034656;28;20419;-75
2022/03/15 23:23:17;;;;;;;18.30;8.70;;;13.50;82.30;;;;;;5035094;28;20040;-75
2022/03/15 23:25:44;;;;;;;16.10;10.07;;;13.50;82.10;;;;;;5032826;28;20097;-75
2022/03/15 23:28:09;;;;;;;15.52;9.85;;;13.50;82.30;;;;;;5034907;28;20076;-75
2022/03/15 23:30:37;;;;;;;20.05;10.05;;;13.50;82.60;;;;;;5034740;28;20025;-75
2022/03/15 23:33:04;;;;;;;21.67;9.73;;;13.50;82.50;;;;;;5034460;28;20041;-76
2022/03/15 23:35:30;;;;;;;17.90;10.35;;;13.50;82.30;;;;;;5034724;28;20032;-75
2022/03/15 23:37:56;;;;;;;22.55;9.90;;;13.60;82.00;;;;;;5033671;28;20101;-75
2022/03/15 23:40:23;;;;;;;14.95;9.55;;;13.60;82.00;;;;;;5034357;28;20025;-75
2022/03/15 23:42:49;;;;;;;17.08;10.00;;;13.60;81.90;;;;;;5034520;28;20041;-75
2022/03/15 23:45:16;;;;;;;18.48;9.90;;;13.40;82.20;;;;;;5033678;28;20104;-76
2022/03/15 23:47:46;;;;;;;17.67;10.45;;;13.40;82.30;;;;;;5033951;28;20047;-76
2022/03/15 23:50:12;;;;;;;;;;;13.40;82.60;;;;;;5035411;28;20101;-75
2022/03/15 23:52:38;;;;;;;14.30;8.60;;;13.40;82.50;;;;;;5034645;28;19975;-76
2022/03/15 23:55:05;;;;;;;18.98;9.45;;;13.40;82.40;;;;;;5032950;28;20040;-75
2022/03/15 23:57:31;;;;;;;18.77;9.13;;;13.30;82.70;;;;;;5034731;28;20061;-75
2022/03/15 23:59:57;;;;;;;15.50;9.27;;;13.30;82.90;;;;;;5034901;28;20068;-75
